Alabaster, Alabama
Current Conditions -  °F | °C
As of 1:53 AM on Sunday 23 Nov 2014 (Local Time) from KEET Reporting Station
Overcast Overcast  
Wind Chill: 13°   Ceiling: 1400
Heat Index: 13°   Visibility: 10mi
Dew Point: 11°   Wind: 5mph
Humidity: 87%   Direction: 80°E
Pressure: 30"   Gusts: NA
Location:  33.25°N, 86.82°W
Report Text: KEET 230753Z AUTO 08004KT 10SM OVC014 13/11 A3000 RMK AO2 RAB10E45 SLP155 P0000 T01330111
Loading
Personal Weather Stations






























Interactive Weather Map New forecast layout! Learn more

10-Day Weather Forecast

Advertisements
Track Severe Weather on mobile